createdAt,value
2018-06-29T00:00:07.372Z,98061.15
2018-06-29T00:02:35.849Z,98052.82
2018-06-29T00:05:04.804Z,98049.91
2018-06-29T00:07:33.208Z,98040.54
2018-06-29T00:10:01.696Z,98049.38
2018-06-29T00:12:30.408Z,98046.34
2018-06-29T00:14:58.916Z,98052.98
2018-06-29T00:17:27.416Z,98051.47
2018-06-29T00:19:55.827Z,98044.61
2018-06-29T00:22:24.552Z,98037.56
2018-06-29T00:24:53.322Z,98044.19
2018-06-29T00:27:21.774Z,98041.87
2018-06-29T00:29:50.210Z,98041.11
2018-06-29T00:32:18.700Z,98051.79
2018-06-29T00:34:47.129Z,98046.64
2018-06-29T00:38:44.652Z,98048.03
2018-06-29T00:41:13.110Z,98041.03
2018-06-29T00:43:41.536Z,98043.20
2018-06-29T00:46:10.017Z,98056.29
2018-06-29T00:48:38.463Z,98049.56
2018-06-29T00:51:07.012Z,98045.33
2018-06-29T00:53:35.460Z,98045.14
2018-06-29T00:56:03.973Z,98039.28
2018-06-29T00:58:32.415Z,98045.73
2018-06-29T01:01:00.902Z,98040.84
2018-06-29T01:03:29.355Z,98044.55
2018-06-29T01:05:57.851Z,98040.88
2018-06-29T01:08:26.252Z,98037.97
2018-06-29T01:10:54.735Z,98037.48
2018-06-29T01:13:23.193Z,98034.05
2018-06-29T01:15:51.642Z,98035.73
2018-06-29T01:18:20.143Z,98035.21
2018-06-29T01:20:48.612Z,98031.53
2018-06-29T01:23:17.051Z,98028.36
2018-06-29T01:25:45.540Z,98023.86
2018-06-29T01:28:14.329Z,98014.19
2018-06-29T01:30:42.787Z,98027.13
2018-06-29T01:33:11.191Z,98025.83
2018-06-29T01:35:39.669Z,98022.95
2018-06-29T01:38:08.138Z,98026.58
2018-06-29T01:40:36.599Z,98021.83
2018-06-29T01:43:05.068Z,98016.16
2018-06-29T01:45:33.516Z,98017.13
2018-06-29T01:48:01.985Z,98014.64
2018-06-29T01:50:30.421Z,98014.45
2018-06-29T01:52:58.936Z,98015.77
2018-06-29T01:55:27.570Z,98015.48
2018-06-29T01:57:56.060Z,98009.27
2018-06-29T02:00:24.487Z,98011.05
2018-06-29T02:02:53.130Z,98004.06
2018-06-29T02:05:21.625Z,98008.75
2018-06-29T02:07:50.061Z,98001.73
2018-06-29T02:10:18.519Z,97999.38
2018-06-29T02:12:46.962Z,98000.48
2018-06-29T02:15:15.392Z,98003.16
2018-06-29T02:17:43.854Z,98001.03
2018-06-29T02:20:12.835Z,97999.42
2018-06-29T02:22:41.307Z,98008.58
2018-06-29T02:25:10.058Z,98008.62
2018-06-29T02:27:38.940Z,98011.23
2018-06-29T02:30:07.972Z,98004.39
2018-06-29T02:32:36.458Z,98012.48
2018-06-29T02:35:04.914Z,98012.84
2018-06-29T02:37:33.477Z,98006.63
2018-06-29T02:40:01.949Z,98006.14
2018-06-29T02:42:30.444Z,98010.41
2018-06-29T02:44:58.867Z,98001.91
2018-06-29T02:47:27.617Z,97996.86
2018-06-29T02:49:56.070Z,98001.48
2018-06-29T02:52:24.531Z,98002.22
2018-06-29T02:54:52.973Z,97997.63
2018-06-29T02:57:21.406Z,97999.31
2018-06-29T02:59:49.817Z,97999.86
2018-06-29T03:02:19.507Z,97993.36
2018-06-29T03:04:48.112Z,97987.53
2018-06-29T03:07:16.617Z,97984.27
2018-06-29T03:09:45.038Z,97976.20
2018-06-29T03:12:13.475Z,97981.00
2018-06-29T03:14:41.928Z,97981.42
2018-06-29T03:17:10.396Z,97982.52
2018-06-29T03:19:38.849Z,97983.55
2018-06-29T03:22:07.336Z,97982.11
2018-06-29T03:24:35.786Z,97984.61
2018-06-29T03:27:04.250Z,97983.34
2018-06-29T03:29:32.711Z,97986.86
2018-06-29T03:32:01.212Z,97985.00
2018-06-29T03:34:29.653Z,97988.14
2018-06-29T03:36:58.102Z,97985.91
2018-06-29T03:39:26.519Z,97981.95
2018-06-29T03:41:54.944Z,97990.47
2018-06-29T03:44:23.430Z,97976.11
2018-06-29T03:46:51.891Z,97976.81
2018-06-29T03:49:20.356Z,97971.93
2018-06-29T03:51:48.782Z,97974.19
2018-06-29T03:54:17.247Z,97978.78
2018-06-29T03:56:45.804Z,97978.45
2018-06-29T03:59:14.288Z,97969.82
2018-06-29T04:01:42.773Z,97968.77
2018-06-29T04:04:11.192Z,97961.95
2018-06-29T04:06:39.640Z,97971.58
2018-06-29T04:09:09.902Z,97968.39
2018-06-29T04:11:38.332Z,97962.13
2018-06-29T04:14:06.828Z,97968.66
2018-06-29T04:16:35.403Z,97967.55
2018-06-29T04:19:03.845Z,97977.56
2018-06-29T04:21:32.553Z,97973.34
2018-06-29T04:24:01.363Z,97971.61
2018-06-29T04:33:13.961Z,97969.85
2018-06-29T04:35:42.603Z,97968.72
2018-06-29T04:38:11.095Z,97970.20
2018-06-29T04:40:39.513Z,97960.42
2018-06-29T04:43:08.212Z,97960.86
2018-06-29T04:45:36.811Z,97963.77
2018-06-29T04:48:05.515Z,97962.75
2018-06-29T04:50:34.834Z,97966.29
2018-06-29T04:53:03.256Z,97964.55
2018-06-29T04:55:31.767Z,97966.89
2018-06-29T04:58:00.225Z,97971.72
2018-06-29T05:00:28.873Z,97965.30
2018-06-29T05:02:57.321Z,97965.02
2018-06-29T05:05:26.747Z,97966.41
2018-06-29T05:07:55.227Z,97960.86
2018-06-29T05:10:24.038Z,97965.28
2018-06-29T05:12:52.636Z,97964.41
2018-06-29T05:15:21.257Z,97964.01
2018-06-29T05:17:49.696Z,97960.09
2018-06-29T05:20:18.173Z,97969.44
2018-06-29T05:22:46.645Z,97964.98
2018-06-29T05:25:15.069Z,97974.14
2018-06-29T05:27:43.486Z,97965.59
2018-06-29T05:30:12.020Z,97968.84
2018-06-29T05:32:40.473Z,97971.06
2018-06-29T05:35:08.957Z,97974.75
2018-06-29T05:37:37.396Z,97977.48
2018-06-29T05:40:06.060Z,97981.45
2018-06-29T05:42:34.576Z,97982.55
2018-06-29T05:45:02.999Z,97995.45
2018-06-29T05:47:31.431Z,97991.89
2018-06-29T05:50:00.371Z,97994.95
2018-06-29T05:52:28.883Z,97986.69
2018-06-29T05:54:57.383Z,97999.74
2018-06-29T05:57:25.901Z,97997.81
2018-06-29T05:59:54.329Z,98001.23
2018-06-29T06:02:22.870Z,98000.81
2018-06-29T06:04:51.415Z,98006.75
2018-06-29T06:07:19.844Z,98013.20
2018-06-29T06:09:48.329Z,98012.13
2018-06-29T06:12:16.768Z,98009.81
2018-06-29T06:14:45.187Z,98009.81
2018-06-29T06:17:13.644Z,97998.18
2018-06-29T06:19:53.197Z,97999.19
2018-06-29T06:22:21.682Z,98000.41
2018-06-29T06:24:50.140Z,98008.68
2018-06-29T06:27:18.624Z,98011.59
2018-06-29T06:29:47.198Z,98016.47
2018-06-29T06:32:15.700Z,98017.24
2018-06-29T06:34:44.247Z,98017.13
2018-06-29T06:37:12.711Z,98017.75
2018-06-29T06:39:41.342Z,98019.37
2018-06-29T06:42:09.755Z,98021.06
2018-06-29T06:44:38.163Z,98026.13
2018-06-29T06:47:06.648Z,98011.15
2018-06-29T06:49:35.518Z,98017.98
2018-06-29T06:52:04.801Z,98025.73
2018-06-29T06:54:33.712Z,98013.61
2018-06-29T06:57:02.197Z,98014.94
2018-06-29T06:59:30.679Z,98021.30
2018-06-29T07:01:59.075Z,98008.95
2018-06-29T07:04:27.503Z,98006.88
2018-06-29T07:06:55.962Z,98004.91
2018-06-29T07:09:24.379Z,98009.36
2018-06-29T07:11:52.824Z,98008.77
2018-06-29T07:14:21.320Z,98017.05
2018-06-29T07:16:49.736Z,98018.96
2018-06-29T07:19:18.195Z,98010.52
2018-06-29T07:21:46.668Z,98021.87
2018-06-29T07:24:15.289Z,98018.96
2018-06-29T07:26:43.780Z,98019.45
2018-06-29T07:29:12.596Z,98023.23
2018-06-29T07:31:41.054Z,98024.59
2018-06-29T07:34:09.469Z,98022.78
2018-06-29T07:36:37.871Z,98021.63
2018-06-29T07:39:08.311Z,98027.67
2018-06-29T07:41:36.748Z,98017.89
2018-06-29T07:44:05.206Z,98022.46
2018-06-29T07:46:33.699Z,98021.86
2018-06-29T07:55:46.211Z,98017.34
2018-06-29T07:58:14.738Z,98015.92
2018-06-29T08:00:43.415Z,98014.00
2018-06-29T08:03:11.875Z,98013.22
2018-06-29T08:05:40.339Z,98026.53
2018-06-29T08:08:08.778Z,98017.05
2018-06-29T08:10:37.243Z,98015.72
2018-06-29T08:13:05.645Z,98020.70
2018-06-29T08:15:34.111Z,98027.55
2018-06-29T08:18:02.829Z,98022.70
2018-06-29T08:20:31.260Z,98022.95
2018-06-29T08:22:59.727Z,98019.59
2018-06-29T08:25:28.152Z,98014.77
2018-06-29T08:27:56.604Z,98013.44
2018-06-29T08:30:25.120Z,98022.14
2018-06-29T08:32:53.595Z,98019.39
2018-06-29T08:35:22.008Z,98023.66
2018-06-29T08:37:50.471Z,98027.45
2018-06-29T08:40:18.943Z,98034.64
2018-06-29T08:42:47.391Z,98032.78
2018-06-29T08:45:15.874Z,98038.19
2018-06-29T08:47:44.370Z,98036.22
2018-06-29T08:50:12.760Z,98030.55
2018-06-29T08:52:41.217Z,98030.45
2018-06-29T08:55:09.765Z,98023.78
2018-06-29T08:57:38.236Z,98035.02
2018-06-29T09:00:07.811Z,98029.70
2018-06-29T09:02:36.356Z,98028.34
2018-06-29T09:05:05.880Z,98030.15
2018-06-29T09:07:34.685Z,98025.89
2018-06-29T09:10:03.139Z,98034.43
2018-06-29T09:12:31.520Z,98030.10
2018-06-29T09:14:59.958Z,98021.11
2018-06-29T09:17:28.435Z,98024.61
2018-06-29T09:19:56.887Z,98034.44
2018-06-29T09:22:25.349Z,98035.10
2018-06-29T09:24:54.123Z,98030.26
2018-06-29T09:27:22.552Z,98025.11
2018-06-29T09:29:50.993Z,98030.88
2018-06-29T09:32:19.598Z,98030.38
2018-06-29T09:34:48.183Z,98031.92
2018-06-29T09:37:16.628Z,98027.25
2018-06-29T09:39:45.076Z,98034.59
2018-06-29T09:42:13.575Z,98026.78
2018-06-29T09:44:42.010Z,98029.11
2018-06-29T09:47:10.463Z,98037.77
2018-06-29T09:49:38.876Z,98034.95
2018-06-29T09:52:07.323Z,98039.28
2018-06-29T09:54:35.752Z,98040.11
2018-06-29T09:57:04.179Z,98039.61
2018-06-29T09:59:32.653Z,98036.62
2018-06-29T10:02:01.114Z,98042.28
2018-06-29T10:04:29.787Z,98035.45
2018-06-29T10:06:58.231Z,98040.63
2018-06-29T10:09:26.631Z,98037.07
2018-06-29T10:11:55.113Z,98037.27
2018-06-29T10:14:23.574Z,98040.59
2018-06-29T10:16:51.976Z,98038.77
2018-06-29T10:19:20.402Z,98039.86
2018-06-29T10:21:48.803Z,98041.67
2018-06-29T10:24:17.898Z,98050.83
2018-06-29T10:26:46.303Z,98039.97
2018-06-29T10:29:14.702Z,98037.83
2018-06-29T10:31:43.170Z,98037.27
2018-06-29T10:34:11.614Z,98033.06
2018-06-29T10:36:40.057Z,98027.36
2018-06-29T10:39:13.231Z,98036.44
2018-06-29T10:41:42.402Z,98026.45
2018-06-29T10:44:10.836Z,98038.16
2018-06-29T10:46:40.369Z,98037.52
2018-06-29T10:49:08.847Z,98033.58
2018-06-29T10:51:37.863Z,98035.09
2018-06-29T10:54:06.356Z,98032.08
2018-06-29T10:56:34.938Z,98030.81
2018-06-29T10:59:03.449Z,98033.88
2018-06-29T11:01:31.968Z,98037.66
2018-06-29T11:04:00.461Z,98021.19
2018-06-29T11:06:28.898Z,98015.44
2018-06-29T11:08:57.535Z,98019.56
2018-06-29T11:11:25.991Z,98016.56
2018-06-29T11:13:54.429Z,98031.81
2018-06-29T11:16:22.885Z,98020.17
2018-06-29T11:18:51.352Z,98016.36
2018-06-29T11:21:19.782Z,98009.12
2018-06-29T11:23:48.256Z,98028.36
2018-06-29T11:26:16.664Z,98028.52
2018-06-29T11:28:45.141Z,98010.92
2018-06-29T11:31:13.583Z,98006.47
2018-06-29T11:33:42.324Z,97999.09
2018-06-29T11:36:10.844Z,98016.72
2018-06-29T11:38:39.546Z,98013.61
2018-06-29T11:41:08.010Z,98011.69
2018-06-29T11:43:36.650Z,98001.12
2018-06-29T11:46:05.133Z,98005.78
2018-06-29T11:48:33.550Z,98010.61
2018-06-29T11:51:01.961Z,98011.84
2018-06-29T11:53:30.726Z,98010.03
2018-06-29T11:55:59.386Z,98002.56
2018-06-29T11:58:28.143Z,98003.66
2018-06-29T12:00:56.832Z,98004.46
2018-06-29T12:03:26.101Z,98001.98
2018-06-29T12:05:54.571Z,98005.25
2018-06-29T12:08:23.056Z,98002.28
2018-06-29T12:10:51.517Z,97997.68
2018-06-29T12:13:20.187Z,98002.28
2018-06-29T12:15:48.645Z,98006.31
2018-06-29T12:18:17.068Z,98002.22
2018-06-29T12:20:45.769Z,98000.73
2018-06-29T12:23:14.269Z,98000.44
2018-06-29T12:25:42.932Z,98001.20
2018-06-29T12:28:11.435Z,97999.50
2018-06-29T12:30:39.882Z,97991.59
2018-06-29T12:33:08.754Z,98013.20
2018-06-29T12:35:37.421Z,97981.45
2018-06-29T12:38:06.603Z,97982.42
2018-06-29T12:40:35.255Z,97985.59
2018-06-29T12:43:03.735Z,97981.25
2018-06-29T12:45:32.314Z,97984.02
2018-06-29T12:48:00.760Z,97978.27
2018-06-29T12:50:29.184Z,97988.19
2018-06-29T12:52:57.928Z,97988.56
2018-06-29T12:55:26.438Z,97981.56
2018-06-29T12:57:54.908Z,97975.84
2018-06-29T13:00:23.451Z,97980.97
2018-06-29T13:02:52.440Z,97972.48
2018-06-29T13:05:21.233Z,97973.07
2018-06-29T13:07:49.892Z,97973.72
2018-06-29T13:10:18.372Z,97987.91
2018-06-29T13:12:46.939Z,97977.85
2018-06-29T13:15:15.605Z,97972.84
2018-06-29T13:17:44.084Z,97971.05
2018-06-29T13:20:12.519Z,97973.09
2018-06-29T13:22:40.951Z,97970.53
2018-06-29T13:25:09.745Z,97971.53
2018-06-29T13:27:38.216Z,97965.37
2018-06-29T13:30:07.501Z,97966.48
2018-06-29T13:32:35.952Z,97966.41
2018-06-29T13:35:04.428Z,97964.48
2018-06-29T13:37:32.873Z,97968.08
2018-06-29T13:40:01.294Z,97962.83
2018-06-29T13:42:29.983Z,97965.88
2018-06-29T13:44:58.456Z,97954.66
2018-06-29T13:47:27.084Z,97952.69
2018-06-29T13:49:55.514Z,97953.32
2018-06-29T13:52:23.975Z,97950.97
2018-06-29T13:54:52.555Z,97953.50
2018-06-29T13:57:21.017Z,97946.44
2018-06-29T13:59:49.571Z,97955.56
2018-06-29T14:02:18.003Z,97953.20
2018-06-29T14:04:46.465Z,97942.40
2018-06-29T14:07:14.877Z,97944.33
2018-06-29T14:09:43.318Z,97932.57
2018-06-29T14:12:11.771Z,97943.97
2018-06-29T14:14:40.189Z,97933.70
2018-06-29T14:17:08.655Z,97939.25
2018-06-29T14:19:37.087Z,97949.15
2018-06-29T14:22:05.618Z,97925.20
2018-06-29T14:24:34.037Z,97930.16
2018-06-29T14:27:02.467Z,97929.03
2018-06-29T14:29:30.868Z,97918.89
2018-06-29T14:31:59.285Z,97910.69
2018-06-29T14:34:27.765Z,97908.66
2018-06-29T14:36:56.470Z,97904.64
2018-06-29T14:39:24.950Z,97900.94
2018-06-29T14:41:53.596Z,97900.34
2018-06-29T14:44:22.033Z,97904.20
2018-06-29T14:46:50.447Z,97909.62
2018-06-29T14:49:18.871Z,97896.66
2018-06-29T14:51:47.616Z,97897.86
2018-06-29T14:54:16.020Z,97893.39
2018-06-29T14:56:44.486Z,97895.07
2018-06-29T14:59:12.931Z,97899.14
2018-06-29T15:01:41.399Z,97911.23
2018-06-29T15:04:10.001Z,97903.19
2018-06-29T15:06:38.668Z,97891.03
2018-06-29T15:09:08.928Z,97890.94
2018-06-29T15:11:37.795Z,97888.31
2018-06-29T15:14:06.784Z,97898.94
2018-06-29T15:16:35.498Z,97894.17
2018-06-29T15:19:03.976Z,97907.76
2018-06-29T15:21:32.442Z,97898.05
2018-06-29T15:24:02.177Z,97903.34
2018-06-29T15:26:31.076Z,97909.36
2018-06-29T15:28:59.688Z,97919.27
2018-06-29T15:31:28.194Z,97920.67
2018-06-29T15:33:56.779Z,97928.47
2018-06-29T15:36:25.184Z,97930.20
2018-06-29T15:38:53.621Z,97923.14
2018-06-29T15:41:22.314Z,97914.06
2018-06-29T15:43:50.845Z,97909.20
2018-06-29T15:46:19.265Z,97907.45
2018-06-29T15:48:47.920Z,97906.92
2018-06-29T15:51:16.349Z,97910.74
2018-06-29T15:53:44.789Z,97918.05
2018-06-29T15:56:13.609Z,97913.36
2018-06-29T15:58:42.068Z,97914.94
2018-06-29T16:01:10.788Z,97918.39
2018-06-29T16:03:39.425Z,97918.13
2018-06-29T16:06:07.867Z,97920.36
2018-06-29T16:08:36.334Z,97926.86
2018-06-29T16:11:04.784Z,97932.15
2018-06-29T16:13:33.238Z,97934.56
2018-06-29T16:16:01.689Z,97931.77
2018-06-29T16:18:30.110Z,97933.32
2018-06-29T16:20:58.560Z,97932.86
2018-06-29T16:23:27.130Z,97930.11
2018-06-29T16:25:55.800Z,97932.06
2018-06-29T16:28:24.479Z,97936.61
2018-06-29T16:30:52.959Z,97937.42
2018-06-29T16:33:21.542Z,97937.95
2018-06-29T16:35:49.991Z,97929.73
2018-06-29T16:38:18.428Z,97933.79
2018-06-29T16:40:46.840Z,97934.50
2018-06-29T16:43:15.512Z,97927.29
2018-06-29T16:45:44.001Z,97927.58
2018-06-29T16:48:12.730Z,97931.09
2018-06-29T16:50:41.267Z,97937.67
2018-06-29T16:53:09.679Z,97933.89
2018-06-29T16:55:38.132Z,97933.25
2018-06-29T16:58:06.575Z,97939.06
2018-06-29T17:00:35.284Z,97934.98
2018-06-29T17:03:03.783Z,97941.20
2018-06-29T17:05:32.227Z,97939.38
2018-06-29T17:08:00.612Z,97948.67
2018-06-29T17:10:29.043Z,97947.11
2018-06-29T17:12:57.495Z,97954.61
2018-06-29T17:15:25.931Z,97952.48
2018-06-29T17:17:54.356Z,97952.16
2018-06-29T17:20:22.768Z,97960.80
2018-06-29T17:22:51.307Z,97958.04
2018-06-29T17:25:19.815Z,97954.75
2018-06-29T17:27:48.404Z,97952.87
2018-06-29T17:30:16.849Z,97956.03
2018-06-29T17:32:45.265Z,97960.89
2018-06-29T17:35:13.742Z,97960.24
2018-06-29T17:37:42.215Z,97960.41
2018-06-29T17:40:10.827Z,97958.36
2018-06-29T17:42:39.239Z,97966.14
2018-06-29T17:45:07.996Z,97965.87
2018-06-29T17:47:36.715Z,97940.28
2018-06-29T17:50:05.226Z,97951.27
2018-06-29T17:52:33.655Z,97962.75
2018-06-29T17:55:02.133Z,97957.44
2018-06-29T17:57:30.551Z,97965.47
2018-06-29T17:59:59.271Z,97962.36
2018-06-29T18:02:27.734Z,97971.77
2018-06-29T18:04:56.203Z,97965.80
2018-06-29T18:07:24.652Z,97967.13
2018-06-29T18:09:53.350Z,97969.53
2018-06-29T18:12:21.824Z,97969.57
2018-06-29T18:14:50.265Z,97962.89
2018-06-29T18:17:18.712Z,97960.58
2018-06-29T18:19:47.195Z,97960.98
2018-06-29T18:22:15.687Z,97956.97
2018-06-29T18:24:44.254Z,97955.38
2018-06-29T18:27:12.836Z,97960.72
2018-06-29T18:29:41.627Z,97968.73
2018-06-29T18:32:10.080Z,97960.73
2018-06-29T18:34:38.600Z,97968.75
2018-06-29T18:37:07.035Z,97973.25
2018-06-29T18:39:35.504Z,97977.78
2018-06-29T18:42:04.079Z,97970.27
2018-06-29T18:44:32.768Z,97976.45
2018-06-29T18:47:01.223Z,97977.13
2018-06-29T18:49:29.684Z,97973.50
2018-06-29T18:51:58.111Z,97979.18
2018-06-29T18:54:26.599Z,97980.20
2018-06-29T18:56:55.156Z,97985.23
2018-06-29T18:59:23.567Z,97984.52
2018-06-29T19:01:52.131Z,97987.40
2018-06-29T19:04:20.558Z,97989.75
2018-06-29T19:06:49.121Z,97986.05
2018-06-29T19:09:17.576Z,97981.58
2018-06-29T19:11:46.066Z,97984.08
2018-06-29T19:14:14.608Z,97988.60
2018-06-29T19:16:43.238Z,97992.26
2018-06-29T19:19:11.745Z,97997.95
2018-06-29T19:21:40.191Z,97989.78
2018-06-29T19:24:08.599Z,97994.45
2018-06-29T19:26:37.318Z,97995.13
2018-06-29T19:29:05.843Z,98002.12
2018-06-29T19:31:34.287Z,97999.74
2018-06-29T19:34:02.762Z,98000.91
2018-06-29T19:36:31.235Z,98005.24
2018-06-29T19:38:59.777Z,98007.73
2018-06-29T19:41:28.263Z,98014.08
2018-06-29T19:43:56.656Z,98007.59
2018-06-29T19:46:25.102Z,98015.41
2018-06-29T19:48:53.521Z,98019.27
2018-06-29T19:51:21.947Z,98024.59
2018-06-29T19:53:50.423Z,98022.41
2018-06-29T19:56:18.842Z,98023.58
2018-06-29T19:58:47.329Z,98025.77
2018-06-29T20:01:15.759Z,98018.40
2018-06-29T20:03:44.181Z,98020.45
2018-06-29T20:06:12.588Z,98028.84
2018-06-29T20:08:41.035Z,98031.09
2018-06-29T20:11:09.475Z,98027.08
2018-06-29T20:13:37.860Z,98033.13
2018-06-29T20:16:06.428Z,98033.63
2018-06-29T20:18:34.862Z,98032.27
2018-06-29T20:21:03.316Z,98036.44
2018-06-29T20:23:31.828Z,98046.93
2018-06-29T20:26:00.541Z,98040.11
2018-06-29T20:28:28.979Z,98040.94
2018-06-29T20:30:57.446Z,98042.78
2018-06-29T20:33:25.949Z,98044.61
2018-06-29T20:35:54.439Z,98040.77
2018-06-29T20:38:22.983Z,98041.11
2018-06-29T20:40:51.448Z,98045.80
2018-06-29T20:43:19.912Z,98043.45
2018-06-29T20:45:48.490Z,98037.96
2018-06-29T20:48:17.604Z,98046.12
2018-06-29T20:50:46.048Z,98043.78
2018-06-29T20:53:14.536Z,98043.79
2018-06-29T20:55:43.037Z,98046.44
2018-06-29T20:58:11.508Z,98045.28
2018-06-29T21:07:24.111Z,98043.26
2018-06-29T21:09:52.617Z,98039.78
2018-06-29T21:12:21.031Z,98041.63
2018-06-29T21:14:49.479Z,98040.63
2018-06-29T21:17:17.906Z,98038.09
2018-06-29T21:19:46.373Z,98038.95
2018-06-29T21:22:14.810Z,98034.28
2018-06-29T21:24:43.270Z,98040.45
2018-06-29T21:27:11.919Z,98043.41
2018-06-29T21:29:40.340Z,98046.62
2018-06-29T21:32:09.420Z,98043.13
2018-06-29T21:34:37.886Z,98036.96
2018-06-29T21:37:06.351Z,98040.62
2018-06-29T21:39:34.811Z,98043.44
2018-06-29T21:42:03.298Z,98047.43
2018-06-29T21:44:31.737Z,98043.27
2018-06-29T21:47:00.175Z,98051.95
2018-06-29T21:49:28.622Z,98038.61
2018-06-29T21:51:57.194Z,98044.61
2018-06-29T21:54:25.809Z,98049.27
2018-06-29T21:56:54.209Z,98045.62
2018-06-29T21:59:22.759Z,98048.28
2018-06-29T22:01:51.252Z,98041.13
2018-06-29T22:05:22.571Z,98044.29
2018-06-29T22:07:51.100Z,98046.27
2018-06-29T22:10:19.547Z,98038.59
2018-06-29T22:12:47.962Z,98037.63
2018-06-29T22:15:23.314Z,98039.45
2018-06-29T22:17:52.058Z,98040.58
2018-06-29T22:20:20.965Z,98027.42
2018-06-29T22:22:49.424Z,98030.23
2018-06-29T22:25:18.140Z,98032.27
2018-06-29T22:27:46.551Z,98030.25
2018-06-29T22:30:14.970Z,98025.93
2018-06-29T22:32:43.520Z,98026.91
2018-06-29T22:35:12.181Z,98030.25
2018-06-29T22:37:40.636Z,98025.42
2018-06-29T22:40:09.786Z,98026.23
2018-06-29T22:42:38.204Z,98024.91
2018-06-29T22:45:07.335Z,98024.09
2018-06-29T22:47:36.138Z,98021.25
2018-06-29T22:50:05.016Z,98024.58
2018-06-29T22:52:33.500Z,98023.56
2018-06-29T22:56:31.412Z,98020.72
2018-06-29T22:58:59.861Z,98022.88
2018-06-29T23:01:28.475Z,98019.55
2018-06-29T23:03:57.025Z,98024.90
2018-06-29T23:06:26.494Z,98021.74
2018-06-29T23:08:55.436Z,98014.88
2018-06-29T23:11:24.247Z,98008.22
2018-06-29T23:13:53.175Z,98005.23
2018-06-29T23:16:21.640Z,98007.36
2018-06-29T23:18:50.324Z,98000.23
2018-06-29T23:21:18.766Z,97999.90
2018-06-29T23:23:47.231Z,97992.53
2018-06-29T23:26:16.016Z,97998.84
2018-06-29T23:28:44.460Z,97999.53
2018-06-29T23:31:12.933Z,98000.02
2018-06-29T23:33:41.355Z,97992.18
2018-06-29T23:36:09.928Z,97997.11
2018-06-29T23:38:38.402Z,97989.77
2018-06-29T23:41:06.999Z,97998.71
2018-06-29T23:43:35.432Z,97995.39
2018-06-29T23:46:03.943Z,97994.02
2018-06-29T23:48:32.572Z,97991.86
2018-06-29T23:51:01.013Z,97980.40
2018-06-29T23:53:29.471Z,97991.05
2018-06-29T23:55:57.912Z,97995.36
2018-06-29T23:58:26.392Z,97994.31
